sensor_id;sensor_type;location;lat;lon;timestamp;P1;durP1;ratioP1;P2;durP2;ratioP2
16973;SDS011;8603;46.944;7.412;2023-08-08T00:00:02;2.10;;;1.50;;
16973;SDS011;8603;46.944;7.412;2023-08-08T00:02:28;2.07;;;1.40;;
16973;SDS011;8603;46.944;7.412;2023-08-08T00:04:54;2.33;;;1.30;;
16973;SDS011;8603;46.944;7.412;2023-08-08T00:07:20;1.67;;;1.57;;
16973;SDS011;8603;46.944;7.412;2023-08-08T00:09:45;2.40;;;1.60;;
16973;SDS011;8603;46.944;7.412;2023-08-08T00:12:11;3.13;;;1.80;;
16973;SDS011;8603;46.944;7.412;2023-08-08T00:14:36;2.50;;;1.60;;
16973;SDS011;8603;46.944;7.412;2023-08-08T00:17:02;2.57;;;1.70;;
16973;SDS011;8603;46.944;7.412;2023-08-08T00:19:27;3.00;;;1.67;;
16973;SDS011;8603;46.944;7.412;2023-08-08T00:21:53;2.53;;;1.60;;
16973;SDS011;8603;46.944;7.412;2023-08-08T00:24:18;1.87;;;1.50;;
16973;SDS011;8603;46.944;7.412;2023-08-08T00:26:44;1.53;;;1.43;;
16973;SDS011;8603;46.944;7.412;2023-08-08T00:29:09;2.67;;;1.60;;
16973;SDS011;8603;46.944;7.412;2023-08-08T00:31:35;4.37;;;1.77;;
16973;SDS011;8603;46.944;7.412;2023-08-08T00:34:00;3.43;;;2.20;;
16973;SDS011;8603;46.944;7.412;2023-08-08T00:36:26;1.80;;;1.70;;
16973;SDS011;8603;46.944;7.412;2023-08-08T00:38:52;1.60;;;1.50;;
16973;SDS011;8603;46.944;7.412;2023-08-08T00:41:17;2.13;;;1.50;;
16973;SDS011;8603;46.944;7.412;2023-08-08T00:43:43;1.50;;;1.40;;
16973;SDS011;8603;46.944;7.412;2023-08-08T00:46:08;2.70;;;1.40;;
16973;SDS011;8603;46.944;7.412;2023-08-08T00:48:34;1.53;;;1.43;;
16973;SDS011;8603;46.944;7.412;2023-08-08T00:51:00;2.60;;;1.63;;
16973;SDS011;8603;46.944;7.412;2023-08-08T00:53:26;1.70;;;1.60;;
16973;SDS011;8603;46.944;7.412;2023-08-08T00:55:56;1.40;;;1.30;;
16973;SDS011;8603;46.944;7.412;2023-08-08T00:58:23;1.73;;;1.60;;
16973;SDS011;8603;46.944;7.412;2023-08-08T01:00:49;3.00;;;1.70;;
16973;SDS011;8603;46.944;7.412;2023-08-08T01:03:14;1.57;;;1.47;;
16973;SDS011;8603;46.944;7.412;2023-08-08T01:05:51;1.90;;;1.80;;
16973;SDS011;8603;46.944;7.412;2023-08-08T01:08:25;1.63;;;1.53;;
16973;SDS011;8603;46.944;7.412;2023-08-08T01:10:56;3.10;;;1.90;;
16973;SDS011;8603;46.944;7.412;2023-08-08T01:13:23;2.33;;;1.83;;
16973;SDS011;8603;46.944;7.412;2023-08-08T01:15:50;3.23;;;1.83;;
16973;SDS011;8603;46.944;7.412;2023-08-08T01:18:19;1.90;;;1.70;;
16973;SDS011;8603;46.944;7.412;2023-08-08T01:20:45;1.70;;;1.60;;
16973;SDS011;8603;46.944;7.412;2023-08-08T01:23:26;1.90;;;1.77;;
16973;SDS011;8603;46.944;7.412;2023-08-08T01:25:55;1.90;;;1.80;;
16973;SDS011;8603;46.944;7.412;2023-08-08T01:28:22;2.10;;;1.80;;
16973;SDS011;8603;46.944;7.412;2023-08-08T01:30:48;3.13;;;1.70;;
16973;SDS011;8603;46.944;7.412;2023-08-08T01:33:14;1.90;;;1.80;;
16973;SDS011;8603;46.944;7.412;2023-08-08T01:35:41;2.87;;;1.70;;
16973;SDS011;8603;46.944;7.412;2023-08-08T01:38:15;3.23;;;1.60;;
16973;SDS011;8603;46.944;7.412;2023-08-08T01:40:45;2.83;;;1.90;;
16973;SDS011;8603;46.944;7.412;2023-08-08T01:43:11;2.30;;;2.00;;
16973;SDS011;8603;46.944;7.412;2023-08-08T01:45:38;1.93;;;1.83;;
16973;SDS011;8603;46.944;7.412;2023-08-08T01:48:07;4.10;;;2.07;;
16973;SDS011;8603;46.944;7.412;2023-08-08T01:50:35;2.07;;;1.87;;
16973;SDS011;8603;46.944;7.412;2023-08-08T01:53:01;2.40;;;1.80;;
16973;SDS011;8603;46.944;7.412;2023-08-08T01:55:27;1.70;;;1.60;;
16973;SDS011;8603;46.944;7.412;2023-08-08T01:57:52;1.80;;;1.70;;
16973;SDS011;8603;46.944;7.412;2023-08-08T02:00:18;2.33;;;1.80;;
16973;SDS011;8603;46.944;7.412;2023-08-08T02:02:43;1.80;;;1.50;;
16973;SDS011;8603;46.944;7.412;2023-08-08T02:05:09;1.93;;;1.70;;
16973;SDS011;8603;46.944;7.412;2023-08-08T02:07:35;2.53;;;1.70;;
16973;SDS011;8603;46.944;7.412;2023-08-08T02:10:00;2.43;;;1.60;;
16973;SDS011;8603;46.944;7.412;2023-08-08T02:12:26;1.83;;;1.60;;
16973;SDS011;8603;46.944;7.412;2023-08-08T02:14:53;2.87;;;1.80;;
16973;SDS011;8603;46.944;7.412;2023-08-08T02:17:19;2.13;;;1.70;;
16973;SDS011;8603;46.944;7.412;2023-08-08T02:19:45;1.93;;;1.73;;
16973;SDS011;8603;46.944;7.412;2023-08-08T02:22:11;1.70;;;1.60;;
16973;SDS011;8603;46.944;7.412;2023-08-08T02:24:36;1.67;;;1.53;;
16973;SDS011;8603;46.944;7.412;2023-08-08T02:27:02;2.70;;;1.60;;
16973;SDS011;8603;46.944;7.412;2023-08-08T02:29:28;5.00;;;2.03;;
16973;SDS011;8603;46.944;7.412;2023-08-08T02:31:53;1.70;;;1.60;;
16973;SDS011;8603;46.944;7.412;2023-08-08T02:34:19;1.83;;;1.47;;
16973;SDS011;8603;46.944;7.412;2023-08-08T02:36:44;2.93;;;1.83;;
16973;SDS011;8603;46.944;7.412;2023-08-08T02:39:10;1.70;;;1.43;;
16973;SDS011;8603;46.944;7.412;2023-08-08T02:41:38;2.00;;;1.60;;
16973;SDS011;8603;46.944;7.412;2023-08-08T02:44:04;1.70;;;1.57;;
16973;SDS011;8603;46.944;7.412;2023-08-08T02:46:32;1.60;;;1.50;;
16973;SDS011;8603;46.944;7.412;2023-08-08T02:48:57;2.23;;;1.97;;
16973;SDS011;8603;46.944;7.412;2023-08-08T02:51:23;2.37;;;1.77;;
16973;SDS011;8603;46.944;7.412;2023-08-08T02:53:49;3.00;;;1.57;;
16973;SDS011;8603;46.944;7.412;2023-08-08T02:56:14;1.80;;;1.70;;
16973;SDS011;8603;46.944;7.412;2023-08-08T02:58:40;1.97;;;1.70;;
16973;SDS011;8603;46.944;7.412;2023-08-08T03:01:05;2.33;;;1.63;;
16973;SDS011;8603;46.944;7.412;2023-08-08T03:03:31;2.57;;;1.60;;
16973;SDS011;8603;46.944;7.412;2023-08-08T03:05:56;1.73;;;1.63;;
16973;SDS011;8603;46.944;7.412;2023-08-08T03:08:22;2.23;;;1.87;;
16973;SDS011;8603;46.944;7.412;2023-08-08T03:10:47;2.03;;;1.70;;
16973;SDS011;8603;46.944;7.412;2023-08-08T03:13:13;2.07;;;1.67;;
16973;SDS011;8603;46.944;7.412;2023-08-08T03:15:38;2.17;;;1.80;;
16973;SDS011;8603;46.944;7.412;2023-08-08T03:18:04;2.10;;;1.87;;
16973;SDS011;8603;46.944;7.412;2023-08-08T03:20:30;1.83;;;1.60;;
16973;SDS011;8603;46.944;7.412;2023-08-08T03:22:55;2.00;;;1.80;;
16973;SDS011;8603;46.944;7.412;2023-08-08T03:25:21;2.07;;;1.60;;
16973;SDS011;8603;46.944;7.412;2023-08-08T03:27:46;1.70;;;1.50;;
16973;SDS011;8603;46.944;7.412;2023-08-08T03:30:12;1.70;;;1.50;;
16973;SDS011;8603;46.944;7.412;2023-08-08T03:32:38;2.13;;;1.50;;
16973;SDS011;8603;46.944;7.412;2023-08-08T03:35:04;1.50;;;1.40;;
16973;SDS011;8603;46.944;7.412;2023-08-08T03:37:31;4.77;;;1.83;;
16973;SDS011;8603;46.944;7.412;2023-08-08T03:39:56;1.87;;;1.70;;
16973;SDS011;8603;46.944;7.412;2023-08-08T03:42:22;1.70;;;1.60;;
16973;SDS011;8603;46.944;7.412;2023-08-08T03:44:47;2.30;;;1.73;;
16973;SDS011;8603;46.944;7.412;2023-08-08T03:47:13;1.77;;;1.67;;
16973;SDS011;8603;46.944;7.412;2023-08-08T03:49:38;1.60;;;1.50;;
16973;SDS011;8603;46.944;7.412;2023-08-08T03:52:04;2.20;;;1.83;;
16973;SDS011;8603;46.944;7.412;2023-08-08T03:54:30;2.77;;;1.70;;
16973;SDS011;8603;46.944;7.412;2023-08-08T03:56:55;3.03;;;1.70;;
16973;SDS011;8603;46.944;7.412;2023-08-08T03:59:21;2.73;;;1.90;;
16973;SDS011;8603;46.944;7.412;2023-08-08T04:01:46;1.80;;;1.70;;
16973;SDS011;8603;46.944;7.412;2023-08-08T04:04:12;2.00;;;1.90;;
16973;SDS011;8603;46.944;7.412;2023-08-08T04:06:38;2.33;;;1.87;;
16973;SDS011;8603;46.944;7.412;2023-08-08T04:09:03;2.13;;;1.90;;
16973;SDS011;8603;46.944;7.412;2023-08-08T04:11:29;2.47;;;1.93;;
16973;SDS011;8603;46.944;7.412;2023-08-08T04:13:55;1.67;;;1.57;;
16973;SDS011;8603;46.944;7.412;2023-08-08T04:16:20;1.70;;;1.60;;
16973;SDS011;8603;46.944;7.412;2023-08-08T04:18:46;1.90;;;1.63;;
16973;SDS011;8603;46.944;7.412;2023-08-08T04:21:11;2.80;;;1.67;;
16973;SDS011;8603;46.944;7.412;2023-08-08T04:23:37;4.70;;;1.80;;
16973;SDS011;8603;46.944;7.412;2023-08-08T04:26:02;2.13;;;1.80;;
16973;SDS011;8603;46.944;7.412;2023-08-08T04:28:28;2.30;;;1.70;;
16973;SDS011;8603;46.944;7.412;2023-08-08T04:30:53;1.90;;;1.67;;
16973;SDS011;8603;46.944;7.412;2023-08-08T04:33:19;1.70;;;1.60;;
16973;SDS011;8603;46.944;7.412;2023-08-08T04:35:44;1.67;;;1.50;;
16973;SDS011;8603;46.944;7.412;2023-08-08T04:38:10;1.60;;;1.50;;
16973;SDS011;8603;46.944;7.412;2023-08-08T04:40:38;2.03;;;1.60;;
16973;SDS011;8603;46.944;7.412;2023-08-08T04:43:04;2.13;;;1.63;;
16973;SDS011;8603;46.944;7.412;2023-08-08T04:45:29;1.60;;;1.50;;
16973;SDS011;8603;46.944;7.412;2023-08-08T04:47:55;1.57;;;1.47;;
16973;SDS011;8603;46.944;7.412;2023-08-08T04:50:20;1.63;;;1.50;;
16973;SDS011;8603;46.944;7.412;2023-08-08T04:52:46;1.50;;;1.40;;
16973;SDS011;8603;46.944;7.412;2023-08-08T04:55:11;3.50;;;1.70;;
16973;SDS011;8603;46.944;7.412;2023-08-08T04:57:37;3.67;;;1.77;;
16973;SDS011;8603;46.944;7.412;2023-08-08T05:00:03;2.33;;;1.60;;
16973;SDS011;8603;46.944;7.412;2023-08-08T05:02:30;2.17;;;1.30;;
16973;SDS011;8603;46.944;7.412;2023-08-08T05:04:55;3.97;;;1.40;;
16973;SDS011;8603;46.944;7.412;2023-08-08T05:07:21;1.90;;;1.70;;
16973;SDS011;8603;46.944;7.412;2023-08-08T05:09:46;1.50;;;1.40;;
16973;SDS011;8603;46.944;7.412;2023-08-08T05:12:12;1.93;;;1.40;;
16973;SDS011;8603;46.944;7.412;2023-08-08T05:14:37;1.87;;;1.40;;
16973;SDS011;8603;46.944;7.412;2023-08-08T05:17:04;2.60;;;1.40;;
16973;SDS011;8603;46.944;7.412;2023-08-08T05:19:29;1.50;;;1.40;;
16973;SDS011;8603;46.944;7.412;2023-08-08T05:21:55;1.77;;;1.50;;
16973;SDS011;8603;46.944;7.412;2023-08-08T05:24:21;2.17;;;1.63;;
16973;SDS011;8603;46.944;7.412;2023-08-08T05:26:46;1.67;;;1.37;;
16973;SDS011;8603;46.944;7.412;2023-08-08T05:29:12;1.87;;;1.30;;
16973;SDS011;8603;46.944;7.412;2023-08-08T05:31:37;3.10;;;1.40;;
16973;SDS011;8603;46.944;7.412;2023-08-08T05:34:03;1.97;;;1.70;;
16973;SDS011;8603;46.944;7.412;2023-08-08T05:36:28;1.50;;;1.40;;
16973;SDS011;8603;46.944;7.412;2023-08-08T05:38:54;1.30;;;1.20;;
16973;SDS011;8603;46.944;7.412;2023-08-08T05:41:19;1.40;;;1.20;;
16973;SDS011;8603;46.944;7.412;2023-08-08T05:43:45;2.67;;;1.27;;
16973;SDS011;8603;46.944;7.412;2023-08-08T05:46:10;1.30;;;1.20;;
16973;SDS011;8603;46.944;7.412;2023-08-08T05:48:36;1.63;;;1.30;;
16973;SDS011;8603;46.944;7.412;2023-08-08T05:51:01;1.53;;;1.43;;
16973;SDS011;8603;46.944;7.412;2023-08-08T05:53:29;1.23;;;1.13;;
16973;SDS011;8603;46.944;7.412;2023-08-08T05:55:56;2.67;;;1.30;;
16973;SDS011;8603;46.944;7.412;2023-08-08T05:58:22;2.80;;;1.40;;
16973;SDS011;8603;46.944;7.412;2023-08-08T06:00:47;1.47;;;1.30;;
16973;SDS011;8603;46.944;7.412;2023-08-08T06:03:13;1.63;;;1.27;;
16973;SDS011;8603;46.944;7.412;2023-08-08T06:05:38;1.43;;;1.30;;
16973;SDS011;8603;46.944;7.412;2023-08-08T06:08:04;2.77;;;1.33;;
16973;SDS011;8603;46.944;7.412;2023-08-08T06:10:32;1.53;;;1.43;;
16973;SDS011;8603;46.944;7.412;2023-08-08T06:12:57;1.83;;;1.20;;
16973;SDS011;8603;46.944;7.412;2023-08-08T06:15:23;2.07;;;1.30;;
16973;SDS011;8603;46.944;7.412;2023-08-08T06:17:48;1.40;;;1.30;;
16973;SDS011;8603;46.944;7.412;2023-08-08T06:20:14;1.53;;;1.20;;
16973;SDS011;8603;46.944;7.412;2023-08-08T06:22:41;2.10;;;1.27;;
16973;SDS011;8603;46.944;7.412;2023-08-08T06:25:07;3.90;;;1.33;;
16973;SDS011;8603;46.944;7.412;2023-08-08T06:27:32;1.50;;;1.17;;
16973;SDS011;8603;46.944;7.412;2023-08-08T06:29:58;1.60;;;1.30;;
16973;SDS011;8603;46.944;7.412;2023-08-08T06:32:24;1.50;;;1.40;;
16973;SDS011;8603;46.944;7.412;2023-08-08T06:34:49;2.50;;;1.30;;
16973;SDS011;8603;46.944;7.412;2023-08-08T06:37:15;4.00;;;1.45;;
16973;SDS011;8603;46.944;7.412;2023-08-08T06:39:40;1.20;;;1.10;;
16973;SDS011;8603;46.944;7.412;2023-08-08T06:42:06;2.75;;;1.40;;
16973;SDS011;8603;46.944;7.412;2023-08-08T06:44:33;1.38;;;1.27;;
16973;SDS011;8603;46.944;7.412;2023-08-08T06:47:05;3.60;;;1.42;;
16973;SDS011;8603;46.944;7.412;2023-08-08T06:49:32;1.20;;;1.13;;
16973;SDS011;8603;46.944;7.412;2023-08-08T06:51:57;2.45;;;1.42;;
16973;SDS011;8603;46.944;7.412;2023-08-08T06:54:23;3.63;;;1.23;;
16973;SDS011;8603;46.944;7.412;2023-08-08T06:56:48;1.40;;;1.30;;
16973;SDS011;8603;46.944;7.412;2023-08-08T06:59:14;1.35;;;1.25;;
16973;SDS011;8603;46.944;7.412;2023-08-08T07:01:39;1.65;;;1.30;;
16973;SDS011;8603;46.944;7.412;2023-08-08T07:04:05;1.55;;;1.20;;
16973;SDS011;8603;46.944;7.412;2023-08-08T07:06:31;2.35;;;1.27;;
16973;SDS011;8603;46.944;7.412;2023-08-08T07:08:56;1.20;;;1.10;;
16973;SDS011;8603;46.944;7.412;2023-08-08T07:11:22;1.30;;;1.20;;
16973;SDS011;8603;46.944;7.412;2023-08-08T07:13:49;1.10;;;1.02;;
16973;SDS011;8603;46.944;7.412;2023-08-08T07:16:15;2.45;;;1.13;;
16973;SDS011;8603;46.944;7.412;2023-08-08T07:18:40;3.80;;;1.25;;
16973;SDS011;8603;46.944;7.412;2023-08-08T07:21:06;1.98;;;1.08;;
16973;SDS011;8603;46.944;7.412;2023-08-08T07:23:32;1.45;;;1.20;;
16973;SDS011;8603;46.944;7.412;2023-08-08T07:25:57;1.67;;;1.30;;
16973;SDS011;8603;46.944;7.412;2023-08-08T07:28:23;2.25;;;1.17;;
16973;SDS011;8603;46.944;7.412;2023-08-08T07:30:48;2.20;;;1.10;;
16973;SDS011;8603;46.944;7.412;2023-08-08T07:33:14;2.08;;;1.30;;
16973;SDS011;8603;46.944;7.412;2023-08-08T07:35:40;1.13;;;1.02;;
16973;SDS011;8603;46.944;7.412;2023-08-08T07:38:08;1.30;;;1.15;;
16973;SDS011;8603;46.944;7.412;2023-08-08T07:40:34;5.57;;;1.50;;
16973;SDS011;8603;46.944;7.412;2023-08-08T07:43:00;1.02;;;1.00;;
16973;SDS011;8603;46.944;7.412;2023-08-08T07:45:26;3.92;;;1.50;;
16973;SDS011;8603;46.944;7.412;2023-08-08T07:47:52;2.20;;;1.10;;
16973;SDS011;8603;46.944;7.412;2023-08-08T07:50:21;1.63;;;1.42;;
16973;SDS011;8603;46.944;7.412;2023-08-08T07:52:50;1.15;;;1.05;;
16973;SDS011;8603;46.944;7.412;2023-08-08T07:55:16;1.40;;;1.13;;
16973;SDS011;8603;46.944;7.412;2023-08-08T07:57:42;1.15;;;1.05;;
16973;SDS011;8603;46.944;7.412;2023-08-08T08:00:10;1.52;;;1.42;;
16973;SDS011;8603;46.944;7.412;2023-08-08T08:02:39;1.20;;;1.10;;
16973;SDS011;8603;46.944;7.412;2023-08-08T08:05:09;1.13;;;1.02;;
16973;SDS011;8603;46.944;7.412;2023-08-08T08:07:35;1.63;;;1.27;;
16973;SDS011;8603;46.944;7.412;2023-08-08T08:10:05;1.67;;;1.30;;
16973;SDS011;8603;46.944;7.412;2023-08-08T08:12:33;1.30;;;1.00;;
16973;SDS011;8603;46.944;7.412;2023-08-08T08:15:03;3.45;;;1.23;;
16973;SDS011;8603;46.944;7.412;2023-08-08T08:17:32;2.70;;;1.30;;
16973;SDS011;8603;46.944;7.412;2023-08-08T08:20:01;1.15;;;1.08;;
16973;SDS011;8603;46.944;7.412;2023-08-08T08:22:38;2.47;;;1.10;;
16973;SDS011;8603;46.944;7.412;2023-08-08T08:25:21;1.30;;;1.20;;
16973;SDS011;8603;46.944;7.412;2023-08-08T08:27:47;1.52;;;1.17;;
16973;SDS011;8603;46.944;7.412;2023-08-08T08:30:21;1.63;;;1.20;;
16973;SDS011;8603;46.944;7.412;2023-08-08T08:32:49;1.55;;;1.30;;
16973;SDS011;8603;46.944;7.412;2023-08-08T08:35:15;1.40;;;1.30;;
16973;SDS011;8603;46.944;7.412;2023-08-08T08:37:44;1.40;;;1.20;;
16973;SDS011;8603;46.944;7.412;2023-08-08T08:40:15;1.30;;;1.20;;
16973;SDS011;8603;46.944;7.412;2023-08-08T08:42:44;1.40;;;1.30;;
16973;SDS011;8603;46.944;7.412;2023-08-08T08:45:14;5.28;;;1.30;;
16973;SDS011;8603;46.944;7.412;2023-08-08T08:47:46;1.13;;;1.10;;
16973;SDS011;8603;46.944;7.412;2023-08-08T08:50:23;3.28;;;1.15;;
16973;SDS011;8603;46.944;7.412;2023-08-08T08:52:55;1.55;;;1.30;;
16973;SDS011;8603;46.944;7.412;2023-08-08T08:55:23;2.75;;;1.17;;
16973;SDS011;8603;46.944;7.412;2023-08-08T08:57:56;1.88;;;1.30;;
16973;SDS011;8603;46.944;7.412;2023-08-08T09:00:31;1.10;;;1.00;;
16973;SDS011;8603;46.944;7.412;2023-08-08T09:03:05;1.20;;;1.10;;
16973;SDS011;8603;46.944;7.412;2023-08-08T09:05:36;2.42;;;1.05;;
16973;SDS011;8603;46.944;7.412;2023-08-08T09:08:08;1.67;;;1.40;;
16973;SDS011;8603;46.944;7.412;2023-08-08T09:10:34;1.42;;;1.23;;
16973;SDS011;8603;46.944;7.412;2023-08-08T09:13:00;3.83;;;1.60;;
16973;SDS011;8603;46.944;7.412;2023-08-08T09:15:33;1.98;;;1.20;;
16973;SDS011;8603;46.944;7.412;2023-08-08T09:18:00;1.58;;;1.10;;
16973;SDS011;8603;46.944;7.412;2023-08-08T09:20:26;4.13;;;1.35;;
16973;SDS011;8603;46.944;7.412;2023-08-08T09:22:55;2.15;;;1.50;;
16973;SDS011;8603;46.944;7.412;2023-08-08T09:25:27;3.47;;;1.30;;
16973;SDS011;8603;46.944;7.412;2023-08-08T09:27:59;1.13;;;1.00;;
16973;SDS011;8603;46.944;7.412;2023-08-08T09:30:30;1.80;;;1.20;;
16973;SDS011;8603;46.944;7.412;2023-08-08T09:33:02;2.00;;;1.05;;
16973;SDS011;8603;46.944;7.412;2023-08-08T09:35:28;1.35;;;1.05;;
16973;SDS011;8603;46.944;7.412;2023-08-08T09:37:55;1.05;;;0.95;;
16973;SDS011;8603;46.944;7.412;2023-08-08T09:40:22;1.52;;;1.02;;
16973;SDS011;8603;46.944;7.412;2023-08-08T09:42:53;1.75;;;1.10;;
16973;SDS011;8603;46.944;7.412;2023-08-08T09:45:21;1.25;;;1.13;;
16973;SDS011;8603;46.944;7.412;2023-08-08T09:47:49;1.63;;;1.20;;
16973;SDS011;8603;46.944;7.412;2023-08-08T09:50:18;2.00;;;1.17;;
16973;SDS011;8603;46.944;7.412;2023-08-08T09:52:45;1.50;;;1.35;;
16973;SDS011;8603;46.944;7.412;2023-08-08T09:55:11;1.88;;;1.58;;
16973;SDS011;8603;46.944;7.412;2023-08-08T09:57:40;1.40;;;1.30;;
16973;SDS011;8603;46.944;7.412;2023-08-08T10:00:08;1.27;;;1.10;;
16973;SDS011;8603;46.944;7.412;2023-08-08T10:02:41;2.50;;;1.30;;
16973;SDS011;8603;46.944;7.412;2023-08-08T10:05:08;1.98;;;1.30;;
16973;SDS011;8603;46.944;7.412;2023-08-08T10:07:37;1.70;;;1.50;;
16973;SDS011;8603;46.944;7.412;2023-08-08T10:10:04;1.45;;;1.10;;
16973;SDS011;8603;46.944;7.412;2023-08-08T10:12:30;1.50;;;1.40;;
16973;SDS011;8603;46.944;7.412;2023-08-08T10:14:56;1.90;;;1.27;;
16973;SDS011;8603;46.944;7.412;2023-08-08T10:17:21;1.65;;;1.40;;
16973;SDS011;8603;46.944;7.412;2023-08-08T10:19:54;1.50;;;1.40;;
16973;SDS011;8603;46.944;7.412;2023-08-08T10:22:21;1.30;;;1.20;;
16973;SDS011;8603;46.944;7.412;2023-08-08T10:24:50;3.85;;;1.60;;
16973;SDS011;8603;46.944;7.412;2023-08-08T10:27:27;1.33;;;1.17;;
16973;SDS011;8603;46.944;7.412;2023-08-08T10:30:05;3.53;;;1.30;;
16973;SDS011;8603;46.944;7.412;2023-08-08T10:32:40;1.80;;;1.23;;
16973;SDS011;8603;46.944;7.412;2023-08-08T10:35:13;1.40;;;1.20;;
16973;SDS011;8603;46.944;7.412;2023-08-08T10:37:39;1.48;;;1.20;;
16973;SDS011;8603;46.944;7.412;2023-08-08T10:40:05;1.52;;;1.42;;
16973;SDS011;8603;46.944;7.412;2023-08-08T10:42:32;1.63;;;1.40;;
16973;SDS011;8603;46.944;7.412;2023-08-08T10:45:08;2.00;;;1.27;;
16973;SDS011;8603;46.944;7.412;2023-08-08T10:47:36;1.55;;;1.20;;
16973;SDS011;8603;46.944;7.412;2023-08-08T10:50:09;1.30;;;1.20;;
16973;SDS011;8603;46.944;7.412;2023-08-08T10:55:20;1.73;;;1.30;;
16973;SDS011;8603;46.944;7.412;2023-08-08T10:57:58;1.42;;;1.23;;
16973;SDS011;8603;46.944;7.412;2023-08-08T11:00:30;2.00;;;1.27;;
16973;SDS011;8603;46.944;7.412;2023-08-08T11:02:57;1.73;;;1.33;;
16973;SDS011;8603;46.944;7.412;2023-08-08T11:05:24;1.15;;;1.10;;
16973;SDS011;8603;46.944;7.412;2023-08-08T11:07:51;1.65;;;1.20;;
16973;SDS011;8603;46.944;7.412;2023-08-08T11:10:16;1.83;;;1.13;;
16973;SDS011;8603;46.944;7.412;2023-08-08T11:12:51;2.72;;;1.30;;
16973;SDS011;8603;46.944;7.412;2023-08-08T11:15:19;1.73;;;1.30;;
16973;SDS011;8603;46.944;7.412;2023-08-08T11:17:44;1.55;;;1.30;;
16973;SDS011;8603;46.944;7.412;2023-08-08T11:20:10;2.13;;;1.17;;
16973;SDS011;8603;46.944;7.412;2023-08-08T11:22:36;1.58;;;1.17;;
16973;SDS011;8603;46.944;7.412;2023-08-08T11:25:01;1.55;;;1.10;;
16973;SDS011;8603;46.944;7.412;2023-08-08T11:27:28;1.30;;;1.20;;
16973;SDS011;8603;46.944;7.412;2023-08-08T11:29:55;1.35;;;1.25;;
16973;SDS011;8603;46.944;7.412;2023-08-08T11:32:22;2.00;;;1.30;;
16973;SDS011;8603;46.944;7.412;2023-08-08T11:34:50;1.17;;;1.13;;
16973;SDS011;8603;46.944;7.412;2023-08-08T11:37:16;1.10;;;1.08;;
16973;SDS011;8603;46.944;7.412;2023-08-08T11:39:42;1.60;;;1.50;;
16973;SDS011;8603;46.944;7.412;2023-08-08T11:42:07;2.67;;;1.20;;
16973;SDS011;8603;46.944;7.412;2023-08-08T11:44:33;1.65;;;1.35;;
16973;SDS011;8603;46.944;7.412;2023-08-08T11:46:59;1.67;;;1.30;;
16973;SDS011;8603;46.944;7.412;2023-08-08T11:49:26;1.83;;;1.00;;
16973;SDS011;8603;46.944;7.412;2023-08-08T11:51:53;1.60;;;1.50;;
16973;SDS011;8603;46.944;7.412;2023-08-08T11:54:22;1.50;;;1.30;;
16973;SDS011;8603;46.944;7.412;2023-08-08T11:56:47;1.48;;;1.38;;
16973;SDS011;8603;46.944;7.412;2023-08-08T11:59:13;2.63;;;1.70;;
16973;SDS011;8603;46.944;7.412;2023-08-08T12:01:39;1.42;;;1.27;;
16973;SDS011;8603;46.944;7.412;2023-08-08T12:04:07;1.95;;;1.10;;
16973;SDS011;8603;46.944;7.412;2023-08-08T12:06:36;0.93;;;0.93;;
16973;SDS011;8603;46.944;7.412;2023-08-08T12:09:05;1.63;;;1.52;;
16973;SDS011;8603;46.944;7.412;2023-08-08T12:11:34;1.35;;;1.25;;
16973;SDS011;8603;46.944;7.412;2023-08-08T12:14:02;1.98;;;1.60;;
16973;SDS011;8603;46.944;7.412;2023-08-08T12:16:28;1.40;;;1.20;;
16973;SDS011;8603;46.944;7.412;2023-08-08T12:18:55;1.65;;;1.20;;
16973;SDS011;8603;46.944;7.412;2023-08-08T12:21:21;2.13;;;1.30;;
16973;SDS011;8603;46.944;7.412;2023-08-08T12:23:46;1.20;;;1.10;;
16973;SDS011;8603;46.944;7.412;2023-08-08T12:26:12;1.38;;;1.27;;
16973;SDS011;8603;46.944;7.412;2023-08-08T12:28:38;1.27;;;1.10;;
16973;SDS011;8603;46.944;7.412;2023-08-08T12:31:06;1.30;;;1.05;;
16973;SDS011;8603;46.944;7.412;2023-08-08T12:33:32;1.75;;;1.30;;
16973;SDS011;8603;46.944;7.412;2023-08-08T12:35:57;2.03;;;1.20;;
16973;SDS011;8603;46.944;7.412;2023-08-08T12:38:23;1.48;;;1.25;;
16973;SDS011;8603;46.944;7.412;2023-08-08T12:40:48;1.40;;;1.30;;
16973;SDS011;8603;46.944;7.412;2023-08-08T12:43:14;1.67;;;1.30;;
16973;SDS011;8603;46.944;7.412;2023-08-08T12:45:42;1.52;;;1.15;;
16973;SDS011;8603;46.944;7.412;2023-08-08T12:48:09;1.50;;;1.40;;
16973;SDS011;8603;46.944;7.412;2023-08-08T12:50:35;1.45;;;1.17;;
16973;SDS011;8603;46.944;7.412;2023-08-08T12:53:01;2.05;;;1.30;;
16973;SDS011;8603;46.944;7.412;2023-08-08T12:55:26;1.63;;;1.20;;
16973;SDS011;8603;46.944;7.412;2023-08-08T12:57:52;1.42;;;1.25;;
16973;SDS011;8603;46.944;7.412;2023-08-08T13:00:18;1.77;;;1.30;;
16973;SDS011;8603;46.944;7.412;2023-08-08T13:02:43;1.10;;;1.10;;
16973;SDS011;8603;46.944;7.412;2023-08-08T13:05:09;1.20;;;1.10;;
16973;SDS011;8603;46.944;7.412;2023-08-08T13:07:35;2.30;;;1.40;;
16973;SDS011;8603;46.944;7.412;2023-08-08T13:10:00;1.92;;;1.20;;
16973;SDS011;8603;46.944;7.412;2023-08-08T13:12:26;2.30;;;1.20;;
16973;SDS011;8603;46.944;7.412;2023-08-08T13:14:51;1.40;;;1.30;;
16973;SDS011;8603;46.944;7.412;2023-08-08T13:17:17;1.80;;;1.30;;
16973;SDS011;8603;46.944;7.412;2023-08-08T13:19:42;1.80;;;1.20;;
16973;SDS011;8603;46.944;7.412;2023-08-08T13:22:08;1.50;;;1.40;;
16973;SDS011;8603;46.944;7.412;2023-08-08T13:24:33;1.80;;;1.35;;
16973;SDS011;8603;46.944;7.412;2023-08-08T13:26:59;1.35;;;1.20;;
16973;SDS011;8603;46.944;7.412;2023-08-08T13:29:28;2.13;;;1.25;;
16973;SDS011;8603;46.944;7.412;2023-08-08T13:31:53;1.40;;;1.30;;
16973;SDS011;8603;46.944;7.412;2023-08-08T13:34:19;1.30;;;1.20;;
16973;SDS011;8603;46.944;7.412;2023-08-08T13:36:44;1.08;;;1.00;;
16973;SDS011;8603;46.944;7.412;2023-08-08T13:39:10;2.10;;;1.10;;
16973;SDS011;8603;46.944;7.412;2023-08-08T13:41:35;1.45;;;1.25;;
16973;SDS011;8603;46.944;7.412;2023-08-08T13:44:01;1.27;;;1.17;;
16973;SDS011;8603;46.944;7.412;2023-08-08T13:46:27;1.50;;;1.17;;
16973;SDS011;8603;46.944;7.412;2023-08-08T13:48:52;1.30;;;1.20;;
16973;SDS011;8603;46.944;7.412;2023-08-08T13:51:18;1.83;;;1.20;;
16973;SDS011;8603;46.944;7.412;2023-08-08T13:53:43;1.58;;;1.20;;
16973;SDS011;8603;46.944;7.412;2023-08-08T13:56:10;2.10;;;1.20;;
16973;SDS011;8603;46.944;7.412;2023-08-08T13:58:36;1.35;;;1.25;;
16973;SDS011;8603;46.944;7.412;2023-08-08T14:01:01;2.63;;;1.25;;
16973;SDS011;8603;46.944;7.412;2023-08-08T14:03:27;1.92;;;1.30;;
16973;SDS011;8603;46.944;7.412;2023-08-08T14:05:52;1.60;;;1.40;;
16973;SDS011;8603;46.944;7.412;2023-08-08T14:08:18;1.13;;;0.98;;
16973;SDS011;8603;46.944;7.412;2023-08-08T14:10:54;1.75;;;1.38;;
16973;SDS011;8603;46.944;7.412;2023-08-08T14:13:34;1.35;;;1.25;;
16973;SDS011;8603;46.944;7.412;2023-08-08T14:16:00;1.65;;;1.30;;
16973;SDS011;8603;46.944;7.412;2023-08-08T14:18:26;1.67;;;1.20;;
16973;SDS011;8603;46.944;7.412;2023-08-08T14:20:51;1.98;;;1.17;;
16973;SDS011;8603;46.944;7.412;2023-08-08T14:23:17;1.70;;;1.42;;
16973;SDS011;8603;46.944;7.412;2023-08-08T14:25:42;1.73;;;1.35;;
16973;SDS011;8603;46.944;7.412;2023-08-08T14:28:08;2.13;;;1.38;;
16973;SDS011;8603;46.944;7.412;2023-08-08T14:30:33;1.33;;;1.23;;
16973;SDS011;8603;46.944;7.412;2023-08-08T14:32:59;1.63;;;1.38;;
16973;SDS011;8603;46.944;7.412;2023-08-08T14:35:24;3.15;;;1.05;;
16973;SDS011;8603;46.944;7.412;2023-08-08T14:37:50;2.03;;;1.45;;
16973;SDS011;8603;46.944;7.412;2023-08-08T14:40:16;1.50;;;1.40;;
16973;SDS011;8603;46.944;7.412;2023-08-08T14:42:41;2.53;;;1.25;;
16973;SDS011;8603;46.944;7.412;2023-08-08T14:45:07;1.20;;;1.08;;
16973;SDS011;8603;46.944;7.412;2023-08-08T14:47:33;1.25;;;1.15;;
16973;SDS011;8603;46.944;7.412;2023-08-08T14:49:59;1.13;;;1.13;;
16973;SDS011;8603;46.944;7.412;2023-08-08T14:52:24;1.52;;;1.13;;
16973;SDS011;8603;46.944;7.412;2023-08-08T14:54:50;1.30;;;1.20;;
16973;SDS011;8603;46.944;7.412;2023-08-08T14:57:16;2.50;;;1.25;;
16973;SDS011;8603;46.944;7.412;2023-08-08T14:59:41;1.65;;;1.20;;